sensor_id;sensor_type;location;lat;lon;timestamp;P1;durP1;ratioP1;P2;durP2;ratioP2
41253;SDS011;26987;59.928;30.306;2023-02-26T00:00:25;6.50;;;2.78;;
41253;SDS011;26987;59.928;30.306;2023-02-26T00:02:53;8.85;;;3.28;;
41253;SDS011;26987;59.928;30.306;2023-02-26T00:05:21;6.82;;;3.00;;
41253;SDS011;26987;59.928;30.306;2023-02-26T00:07:49;7.15;;;3.15;;
41253;SDS011;26987;59.928;30.306;2023-02-26T00:10:19;5.72;;;2.42;;
41253;SDS011;26987;59.928;30.306;2023-02-26T00:12:47;7.18;;;3.00;;
41253;SDS011;26987;59.928;30.306;2023-02-26T00:15:16;6.55;;;3.28;;
41253;SDS011;26987;59.928;30.306;2023-02-26T00:17:47;6.72;;;3.25;;
41253;SDS011;26987;59.928;30.306;2023-02-26T00:22:47;4.25;;;2.38;;
41253;SDS011;26987;59.928;30.306;2023-02-26T00:25:16;8.40;;;3.35;;
41253;SDS011;26987;59.928;30.306;2023-02-26T00:27:45;6.93;;;3.42;;
41253;SDS011;26987;59.928;30.306;2023-02-26T00:30:14;5.40;;;2.97;;
41253;SDS011;26987;59.928;30.306;2023-02-26T00:32:42;4.50;;;2.35;;
41253;SDS011;26987;59.928;30.306;2023-02-26T00:35:11;6.65;;;2.42;;
41253;SDS011;26987;59.928;30.306;2023-02-26T00:37:49;6.82;;;3.05;;
41253;SDS011;26987;59.928;30.306;2023-02-26T00:40:26;7.25;;;3.40;;
41253;SDS011;26987;59.928;30.306;2023-02-26T00:43:03;6.70;;;2.80;;
41253;SDS011;26987;59.928;30.306;2023-02-26T00:45:31;4.25;;;2.03;;
41253;SDS011;26987;59.928;30.306;2023-02-26T00:50:52;5.75;;;3.53;;
41253;SDS011;26987;59.928;30.306;2023-02-26T00:55:54;7.07;;;3.35;;
41253;SDS011;26987;59.928;30.306;2023-02-26T00:58:24;5.32;;;2.13;;
41253;SDS011;26987;59.928;30.306;2023-02-26T01:00:52;5.18;;;2.67;;
41253;SDS011;26987;59.928;30.306;2023-02-26T01:03:20;6.70;;;2.97;;
41253;SDS011;26987;59.928;30.306;2023-02-26T01:05:48;8.77;;;3.83;;
41253;SDS011;26987;59.928;30.306;2023-02-26T01:08:18;7.68;;;3.33;;
41253;SDS011;26987;59.928;30.306;2023-02-26T01:10:56;5.68;;;2.67;;
41253;SDS011;26987;59.928;30.306;2023-02-26T01:13:26;8.50;;;3.47;;
41253;SDS011;26987;59.928;30.306;2023-02-26T01:15:55;5.75;;;2.47;;
41253;SDS011;26987;59.928;30.306;2023-02-26T01:18:30;9.73;;;4.35;;
41253;SDS011;26987;59.928;30.306;2023-02-26T01:21:04;7.45;;;3.60;;
41253;SDS011;26987;59.928;30.306;2023-02-26T01:23:37;6.68;;;3.33;;
41253;SDS011;26987;59.928;30.306;2023-02-26T01:26:10;6.57;;;3.30;;
41253;SDS011;26987;59.928;30.306;2023-02-26T01:28:43;7.13;;;3.05;;
41253;SDS011;26987;59.928;30.306;2023-02-26T01:31:14;6.57;;;3.28;;
41253;SDS011;26987;59.928;30.306;2023-02-26T01:33:52;5.43;;;2.72;;
41253;SDS011;26987;59.928;30.306;2023-02-26T01:36:26;6.85;;;3.33;;
41253;SDS011;26987;59.928;30.306;2023-02-26T01:38:59;8.02;;;3.95;;
41253;SDS011;26987;59.928;30.306;2023-02-26T01:41:32;5.10;;;2.55;;
41253;SDS011;26987;59.928;30.306;2023-02-26T01:44:10;6.25;;;3.60;;
41253;SDS011;26987;59.928;30.306;2023-02-26T01:46:48;5.80;;;2.92;;
41253;SDS011;26987;59.928;30.306;2023-02-26T01:49:26;7.78;;;3.10;;
41253;SDS011;26987;59.928;30.306;2023-02-26T01:51:55;9.45;;;3.22;;
41253;SDS011;26987;59.928;30.306;2023-02-26T01:54:24;7.38;;;3.47;;
41253;SDS011;26987;59.928;30.306;2023-02-26T01:56:56;7.53;;;3.65;;
41253;SDS011;26987;59.928;30.306;2023-02-26T01:59:32;8.52;;;4.47;;
41253;SDS011;26987;59.928;30.306;2023-02-26T02:02:04;7.85;;;3.33;;
41253;SDS011;26987;59.928;30.306;2023-02-26T02:04:34;9.52;;;3.42;;
41253;SDS011;26987;59.928;30.306;2023-02-26T02:07:03;7.57;;;3.08;;
41253;SDS011;26987;59.928;30.306;2023-02-26T02:09:32;11.27;;;3.00;;
41253;SDS011;26987;59.928;30.306;2023-02-26T02:12:09;3.90;;;2.70;;
41253;SDS011;26987;59.928;30.306;2023-02-26T02:14:55;6.43;;;3.28;;
41253;SDS011;26987;59.928;30.306;2023-02-26T02:17:33;7.78;;;2.10;;
41253;SDS011;26987;59.928;30.306;2023-02-26T02:20:25;7.03;;;3.67;;
41253;SDS011;26987;59.928;30.306;2023-02-26T02:23:11;6.05;;;3.05;;
41253;SDS011;26987;59.928;30.306;2023-02-26T02:29:02;9.88;;;5.00;;
41253;SDS011;26987;59.928;30.306;2023-02-26T02:31:52;8.93;;;4.10;;
41253;SDS011;26987;59.928;30.306;2023-02-26T02:34:22;8.77;;;3.35;;
41253;SDS011;26987;59.928;30.306;2023-02-26T02:36:56;6.17;;;3.10;;
41253;SDS011;26987;59.928;30.306;2023-02-26T02:39:28;10.25;;;4.28;;
41253;SDS011;26987;59.928;30.306;2023-02-26T02:42:01;6.57;;;3.38;;
41253;SDS011;26987;59.928;30.306;2023-02-26T02:44:34;8.02;;;3.78;;
41253;SDS011;26987;59.928;30.306;2023-02-26T02:47:08;7.15;;;3.65;;
41253;SDS011;26987;59.928;30.306;2023-02-26T02:49:38;10.25;;;4.40;;
41253;SDS011;26987;59.928;30.306;2023-02-26T02:52:13;7.03;;;3.75;;
41253;SDS011;26987;59.928;30.306;2023-02-26T02:54:53;8.65;;;4.30;;
41253;SDS011;26987;59.928;30.306;2023-02-26T02:57:25;10.90;;;4.65;;
41253;SDS011;26987;59.928;30.306;2023-02-26T03:00:03;5.20;;;2.90;;
41253;SDS011;26987;59.928;30.306;2023-02-26T03:02:38;8.60;;;3.08;;
41253;SDS011;26987;59.928;30.306;2023-02-26T03:05:09;8.30;;;3.08;;
41253;SDS011;26987;59.928;30.306;2023-02-26T03:07:38;8.65;;;4.40;;
41253;SDS011;26987;59.928;30.306;2023-02-26T03:10:12;7.72;;;3.78;;
41253;SDS011;26987;59.928;30.306;2023-02-26T03:12:40;9.50;;;4.45;;
41253;SDS011;26987;59.928;30.306;2023-02-26T03:15:08;9.15;;;3.80;;
41253;SDS011;26987;59.928;30.306;2023-02-26T03:17:42;9.27;;;4.55;;
41253;SDS011;26987;59.928;30.306;2023-02-26T03:20:19;9.38;;;3.85;;
41253;SDS011;26987;59.928;30.306;2023-02-26T03:22:57;5.57;;;3.03;;
41253;SDS011;26987;59.928;30.306;2023-02-26T03:25:34;8.65;;;3.80;;
41253;SDS011;26987;59.928;30.306;2023-02-26T03:28:12;10.27;;;5.15;;
41253;SDS011;26987;59.928;30.306;2023-02-26T03:30:47;10.70;;;3.97;;
41253;SDS011;26987;59.928;30.306;2023-02-26T03:33:21;8.00;;;4.28;;
41253;SDS011;26987;59.928;30.306;2023-02-26T03:35:53;12.70;;;4.28;;
41253;SDS011;26987;59.928;30.306;2023-02-26T03:38:24;8.15;;;4.18;;
41253;SDS011;26987;59.928;30.306;2023-02-26T03:41:00;8.60;;;4.05;;
41253;SDS011;26987;59.928;30.306;2023-02-26T03:43:34;8.70;;;3.72;;
41253;SDS011;26987;59.928;30.306;2023-02-26T03:46:09;8.15;;;4.40;;
41253;SDS011;26987;59.928;30.306;2023-02-26T03:48:41;10.60;;;4.15;;
41253;SDS011;26987;59.928;30.306;2023-02-26T03:51:10;8.23;;;3.80;;
41253;SDS011;26987;59.928;30.306;2023-02-26T03:54:00;9.27;;;4.70;;
41253;SDS011;26987;59.928;30.306;2023-02-26T03:56:36;9.57;;;3.75;;
41253;SDS011;26987;59.928;30.306;2023-02-26T03:59:31;6.53;;;3.38;;
41253;SDS011;26987;59.928;30.306;2023-02-26T04:02:37;6.38;;;3.33;;
41253;SDS011;26987;59.928;30.306;2023-02-26T04:05:17;10.93;;;4.72;;
41253;SDS011;26987;59.928;30.306;2023-02-26T04:07:47;8.80;;;3.60;;
41253;SDS011;26987;59.928;30.306;2023-02-26T04:10:17;8.23;;;3.88;;
41253;SDS011;26987;59.928;30.306;2023-02-26T04:12:48;7.00;;;3.80;;
41253;SDS011;26987;59.928;30.306;2023-02-26T04:15:16;10.45;;;4.93;;
41253;SDS011;26987;59.928;30.306;2023-02-26T04:17:44;8.63;;;3.35;;
41253;SDS011;26987;59.928;30.306;2023-02-26T04:20:12;9.13;;;3.92;;
41253;SDS011;26987;59.928;30.306;2023-02-26T04:22:42;11.45;;;4.40;;
41253;SDS011;26987;59.928;30.306;2023-02-26T04:25:10;6.80;;;3.22;;
41253;SDS011;26987;59.928;30.306;2023-02-26T04:27:38;7.60;;;2.88;;
41253;SDS011;26987;59.928;30.306;2023-02-26T04:30:07;8.07;;;4.50;;
41253;SDS011;26987;59.928;30.306;2023-02-26T04:32:35;6.93;;;3.65;;
41253;SDS011;26987;59.928;30.306;2023-02-26T04:35:05;6.93;;;3.20;;
41253;SDS011;26987;59.928;30.306;2023-02-26T04:37:33;5.25;;;2.78;;
41253;SDS011;26987;59.928;30.306;2023-02-26T04:40:03;7.78;;;3.67;;
41253;SDS011;26987;59.928;30.306;2023-02-26T04:42:32;6.28;;;3.58;;
41253;SDS011;26987;59.928;30.306;2023-02-26T04:45:00;7.10;;;3.22;;
41253;SDS011;26987;59.928;30.306;2023-02-26T04:47:31;9.48;;;3.20;;
41253;SDS011;26987;59.928;30.306;2023-02-26T04:49:59;6.65;;;3.08;;
41253;SDS011;26987;59.928;30.306;2023-02-26T04:52:27;6.80;;;2.53;;
41253;SDS011;26987;59.928;30.306;2023-02-26T04:54:56;6.75;;;3.55;;
41253;SDS011;26987;59.928;30.306;2023-02-26T04:57:25;6.00;;;2.67;;
41253;SDS011;26987;59.928;30.306;2023-02-26T04:59:54;9.45;;;2.92;;
41253;SDS011;26987;59.928;30.306;2023-02-26T05:02:26;6.93;;;3.10;;
41253;SDS011;26987;59.928;30.306;2023-02-26T05:04:54;4.60;;;2.40;;
41253;SDS011;26987;59.928;30.306;2023-02-26T05:07:22;9.68;;;3.05;;
41253;SDS011;26987;59.928;30.306;2023-02-26T05:09:50;5.50;;;3.30;;
41253;SDS011;26987;59.928;30.306;2023-02-26T05:12:18;5.80;;;2.83;;
41253;SDS011;26987;59.928;30.306;2023-02-26T05:14:47;3.65;;;2.03;;
41253;SDS011;26987;59.928;30.306;2023-02-26T05:17:15;5.95;;;2.53;;
41253;SDS011;26987;59.928;30.306;2023-02-26T05:19:43;5.07;;;2.22;;
41253;SDS011;26987;59.928;30.306;2023-02-26T05:22:11;4.90;;;2.80;;
41253;SDS011;26987;59.928;30.306;2023-02-26T05:24:40;4.10;;;2.13;;
41253;SDS011;26987;59.928;30.306;2023-02-26T05:27:09;5.53;;;2.42;;
41253;SDS011;26987;59.928;30.306;2023-02-26T05:29:42;7.10;;;3.20;;
41253;SDS011;26987;59.928;30.306;2023-02-26T05:32:13;5.53;;;2.47;;
41253;SDS011;26987;59.928;30.306;2023-02-26T05:34:41;11.15;;;3.22;;
41253;SDS011;26987;59.928;30.306;2023-02-26T05:37:09;3.53;;;1.90;;
41253;SDS011;26987;59.928;30.306;2023-02-26T05:39:37;10.25;;;2.78;;
41253;SDS011;26987;59.928;30.306;2023-02-26T05:42:06;5.65;;;2.80;;
41253;SDS011;26987;59.928;30.306;2023-02-26T05:44:34;7.90;;;2.38;;
41253;SDS011;26987;59.928;30.306;2023-02-26T05:47:02;7.45;;;2.95;;
41253;SDS011;26987;59.928;30.306;2023-02-26T05:49:32;8.45;;;2.92;;
41253;SDS011;26987;59.928;30.306;2023-02-26T05:51:59;3.42;;;2.00;;
41253;SDS011;26987;59.928;30.306;2023-02-26T05:54:27;11.05;;;2.65;;
41253;SDS011;26987;59.928;30.306;2023-02-26T05:56:55;7.53;;;3.50;;
41253;SDS011;26987;59.928;30.306;2023-02-26T05:59:23;5.25;;;2.80;;
41253;SDS011;26987;59.928;30.306;2023-02-26T06:01:51;7.00;;;3.72;;
41253;SDS011;26987;59.928;30.306;2023-02-26T06:04:20;7.03;;;2.92;;
41253;SDS011;26987;59.928;30.306;2023-02-26T06:06:49;4.85;;;2.65;;
41253;SDS011;26987;59.928;30.306;2023-02-26T06:09:17;6.18;;;2.22;;
41253;SDS011;26987;59.928;30.306;2023-02-26T06:11:44;7.85;;;3.45;;
41253;SDS011;26987;59.928;30.306;2023-02-26T06:14:12;7.15;;;2.33;;
41253;SDS011;26987;59.928;30.306;2023-02-26T06:16:40;6.13;;;2.70;;
41253;SDS011;26987;59.928;30.306;2023-02-26T06:19:08;4.78;;;2.38;;
41253;SDS011;26987;59.928;30.306;2023-02-26T06:21:36;4.78;;;2.33;;
41253;SDS011;26987;59.928;30.306;2023-02-26T06:24:06;6.72;;;2.67;;
41253;SDS011;26987;59.928;30.306;2023-02-26T06:26:34;4.50;;;2.58;;
41253;SDS011;26987;59.928;30.306;2023-02-26T06:29:01;6.90;;;2.83;;
41253;SDS011;26987;59.928;30.306;2023-02-26T06:31:29;5.72;;;3.03;;
41253;SDS011;26987;59.928;30.306;2023-02-26T06:33:57;3.38;;;1.88;;
41253;SDS011;26987;59.928;30.306;2023-02-26T06:36:26;5.57;;;2.65;;
41253;SDS011;26987;59.928;30.306;2023-02-26T06:38:54;7.97;;;2.70;;
41253;SDS011;26987;59.928;30.306;2023-02-26T06:41:23;4.90;;;2.42;;
41253;SDS011;26987;59.928;30.306;2023-02-26T06:43:51;3.85;;;2.00;;
41253;SDS011;26987;59.928;30.306;2023-02-26T06:46:19;2.80;;;1.85;;
41253;SDS011;26987;59.928;30.306;2023-02-26T06:48:47;4.88;;;2.30;;
41253;SDS011;26987;59.928;30.306;2023-02-26T06:51:14;6.40;;;2.95;;
41253;SDS011;26987;59.928;30.306;2023-02-26T06:53:42;5.43;;;2.28;;
41253;SDS011;26987;59.928;30.306;2023-02-26T06:56:10;5.15;;;2.33;;
41253;SDS011;26987;59.928;30.306;2023-02-26T06:58:39;4.50;;;2.05;;
41253;SDS011;26987;59.928;30.306;2023-02-26T07:01:07;4.30;;;2.03;;
41253;SDS011;26987;59.928;30.306;2023-02-26T07:03:35;4.90;;;1.95;;
41253;SDS011;26987;59.928;30.306;2023-02-26T07:06:03;4.57;;;2.38;;
41253;SDS011;26987;59.928;30.306;2023-02-26T07:08:33;5.20;;;2.15;;
41253;SDS011;26987;59.928;30.306;2023-02-26T07:11:01;6.20;;;2.60;;
41253;SDS011;26987;59.928;30.306;2023-02-26T07:13:29;6.28;;;2.28;;
41253;SDS011;26987;59.928;30.306;2023-02-26T07:15:59;3.95;;;2.00;;
41253;SDS011;26987;59.928;30.306;2023-02-26T07:18:26;5.55;;;2.50;;
41253;SDS011;26987;59.928;30.306;2023-02-26T07:20:54;4.45;;;2.33;;
41253;SDS011;26987;59.928;30.306;2023-02-26T07:23:22;8.57;;;2.50;;
41253;SDS011;26987;59.928;30.306;2023-02-26T07:25:50;5.05;;;2.70;;
41253;SDS011;26987;59.928;30.306;2023-02-26T07:28:18;5.13;;;2.13;;
41253;SDS011;26987;59.928;30.306;2023-02-26T07:30:46;4.75;;;2.13;;
41253;SDS011;26987;59.928;30.306;2023-02-26T07:33:16;5.35;;;2.00;;
41253;SDS011;26987;59.928;30.306;2023-02-26T07:35:43;4.72;;;2.25;;
41253;SDS011;26987;59.928;30.306;2023-02-26T07:38:11;3.28;;;1.70;;
41253;SDS011;26987;59.928;30.306;2023-02-26T07:40:39;4.40;;;1.83;;
41253;SDS011;26987;59.928;30.306;2023-02-26T07:43:07;3.75;;;1.95;;
41253;SDS011;26987;59.928;30.306;2023-02-26T07:45:35;5.95;;;2.22;;
41253;SDS011;26987;59.928;30.306;2023-02-26T07:48:03;8.32;;;2.38;;
41253;SDS011;26987;59.928;30.306;2023-02-26T07:50:32;3.85;;;1.77;;
41253;SDS011;26987;59.928;30.306;2023-02-26T07:53:00;4.25;;;2.30;;
41253;SDS011;26987;59.928;30.306;2023-02-26T07:55:28;7.82;;;2.08;;
41253;SDS011;26987;59.928;30.306;2023-02-26T07:57:55;5.10;;;2.17;;
41253;SDS011;26987;59.928;30.306;2023-02-26T08:00:23;3.90;;;1.55;;
41253;SDS011;26987;59.928;30.306;2023-02-26T08:02:51;4.72;;;2.20;;
41253;SDS011;26987;59.928;30.306;2023-02-26T08:05:20;7.60;;;1.60;;
41253;SDS011;26987;59.928;30.306;2023-02-26T08:07:49;5.53;;;2.22;;
41253;SDS011;26987;59.928;30.306;2023-02-26T08:10:17;9.63;;;1.75;;
41253;SDS011;26987;59.928;30.306;2023-02-26T08:12:48;5.72;;;1.98;;
41253;SDS011;26987;59.928;30.306;2023-02-26T08:15:16;4.55;;;2.35;;
41253;SDS011;26987;59.928;30.306;2023-02-26T08:17:43;6.45;;;1.90;;
41253;SDS011;26987;59.928;30.306;2023-02-26T08:20:12;3.63;;;1.65;;
41253;SDS011;26987;59.928;30.306;2023-02-26T08:22:41;5.15;;;2.17;;
41253;SDS011;26987;59.928;30.306;2023-02-26T08:25:10;6.70;;;1.70;;
41253;SDS011;26987;59.928;30.306;2023-02-26T08:27:38;4.38;;;2.15;;
41253;SDS011;26987;59.928;30.306;2023-02-26T08:30:07;4.43;;;2.20;;
41253;SDS011;26987;59.928;30.306;2023-02-26T08:32:36;4.30;;;2.58;;
41253;SDS011;26987;59.928;30.306;2023-02-26T08:35:07;3.92;;;1.85;;
41253;SDS011;26987;59.928;30.306;2023-02-26T08:37:38;5.65;;;2.53;;
41253;SDS011;26987;59.928;30.306;2023-02-26T08:40:07;3.75;;;1.70;;
41253;SDS011;26987;59.928;30.306;2023-02-26T08:42:39;7.70;;;2.22;;
41253;SDS011;26987;59.928;30.306;2023-02-26T08:45:07;8.13;;;2.65;;
41253;SDS011;26987;59.928;30.306;2023-02-26T08:47:36;4.20;;;2.17;;
41253;SDS011;26987;59.928;30.306;2023-02-26T08:50:07;8.15;;;2.75;;
41253;SDS011;26987;59.928;30.306;2023-02-26T08:52:36;4.40;;;2.20;;
41253;SDS011;26987;59.928;30.306;2023-02-26T08:55:05;3.97;;;2.05;;
41253;SDS011;26987;59.928;30.306;2023-02-26T08:57:35;4.97;;;2.05;;
41253;SDS011;26987;59.928;30.306;2023-02-26T09:00:03;3.25;;;1.67;;
41253;SDS011;26987;59.928;30.306;2023-02-26T09:02:35;8.38;;;3.38;;
41253;SDS011;26987;59.928;30.306;2023-02-26T09:05:03;7.03;;;2.55;;
41253;SDS011;26987;59.928;30.306;2023-02-26T09:07:32;4.22;;;2.40;;
41253;SDS011;26987;59.928;30.306;2023-02-26T09:10:00;4.50;;;2.38;;
41253;SDS011;26987;59.928;30.306;2023-02-26T09:12:27;5.40;;;2.78;;
41253;SDS011;26987;59.928;30.306;2023-02-26T09:14:57;5.57;;;2.38;;
41253;SDS011;26987;59.928;30.306;2023-02-26T09:17:26;4.97;;;2.75;;
41253;SDS011;26987;59.928;30.306;2023-02-26T09:19:53;4.82;;;2.22;;
41253;SDS011;26987;59.928;30.306;2023-02-26T09:22:21;5.05;;;2.28;;
41253;SDS011;26987;59.928;30.306;2023-02-26T09:24:49;6.13;;;2.83;;
41253;SDS011;26987;59.928;30.306;2023-02-26T09:27:17;4.95;;;2.25;;
41253;SDS011;26987;59.928;30.306;2023-02-26T09:29:45;5.93;;;2.05;;
41253;SDS011;26987;59.928;30.306;2023-02-26T09:32:14;6.03;;;2.83;;
41253;SDS011;26987;59.928;30.306;2023-02-26T09:34:42;6.00;;;2.45;;
41253;SDS011;26987;59.928;30.306;2023-02-26T09:37:10;7.35;;;2.50;;
41253;SDS011;26987;59.928;30.306;2023-02-26T09:39:38;5.95;;;2.80;;
41253;SDS011;26987;59.928;30.306;2023-02-26T09:42:09;6.05;;;2.70;;
41253;SDS011;26987;59.928;30.306;2023-02-26T09:44:43;5.40;;;2.67;;
41253;SDS011;26987;59.928;30.306;2023-02-26T09:47:16;5.72;;;2.70;;
41253;SDS011;26987;59.928;30.306;2023-02-26T09:49:49;4.00;;;2.10;;
41253;SDS011;26987;59.928;30.306;2023-02-26T09:52:24;6.57;;;2.08;;
41253;SDS011;26987;59.928;30.306;2023-02-26T09:54:57;7.80;;;3.00;;
41253;SDS011;26987;59.928;30.306;2023-02-26T09:57:29;5.65;;;2.72;;
41253;SDS011;26987;59.928;30.306;2023-02-26T10:00:00;4.32;;;1.85;;
41253;SDS011;26987;59.928;30.306;2023-02-26T10:02:41;3.47;;;1.75;;
41253;SDS011;26987;59.928;30.306;2023-02-26T10:05:17;5.22;;;2.40;;
41253;SDS011;26987;59.928;30.306;2023-02-26T10:07:49;5.90;;;2.55;;
41253;SDS011;26987;59.928;30.306;2023-02-26T10:10:28;5.55;;;2.67;;
41253;SDS011;26987;59.928;30.306;2023-02-26T10:13:01;4.85;;;2.20;;
41253;SDS011;26987;59.928;30.306;2023-02-26T10:15:31;6.25;;;2.38;;
41253;SDS011;26987;59.928;30.306;2023-02-26T10:18:07;4.07;;;2.35;;
41253;SDS011;26987;59.928;30.306;2023-02-26T10:20:40;4.35;;;2.08;;
41253;SDS011;26987;59.928;30.306;2023-02-26T10:23:18;5.65;;;2.13;;
41253;SDS011;26987;59.928;30.306;2023-02-26T10:25:51;5.97;;;2.00;;
41253;SDS011;26987;59.928;30.306;2023-02-26T10:28:36;7.53;;;2.90;;
41253;SDS011;26987;59.928;30.306;2023-02-26T10:31:15;5.32;;;2.65;;
41253;SDS011;26987;59.928;30.306;2023-02-26T10:33:55;3.08;;;1.90;;
41253;SDS011;26987;59.928;30.306;2023-02-26T10:36:28;6.07;;;2.45;;
41253;SDS011;26987;59.928;30.306;2023-02-26T10:39:03;3.85;;;2.22;;
41253;SDS011;26987;59.928;30.306;2023-02-26T10:41:42;6.50;;;2.58;;
41253;SDS011;26987;59.928;30.306;2023-02-26T10:44:12;4.93;;;2.88;;
41253;SDS011;26987;59.928;30.306;2023-02-26T10:46:45;3.92;;;2.00;;
41253;SDS011;26987;59.928;30.306;2023-02-26T10:49:26;5.07;;;2.38;;
41253;SDS011;26987;59.928;30.306;2023-02-26T10:52:08;6.57;;;2.80;;
41253;SDS011;26987;59.928;30.306;2023-02-26T10:54:40;5.10;;;1.58;;
41253;SDS011;26987;59.928;30.306;2023-02-26T10:57:17;4.50;;;2.13;;
41253;SDS011;26987;59.928;30.306;2023-02-26T10:59:50;6.18;;;2.95;;
41253;SDS011;26987;59.928;30.306;2023-02-26T11:05:14;5.15;;;2.38;;
41253;SDS011;26987;59.928;30.306;2023-02-26T11:07:44;5.20;;;2.50;;
41253;SDS011;26987;59.928;30.306;2023-02-26T11:10:17;3.97;;;2.03;;
41253;SDS011;26987;59.928;30.306;2023-02-26T11:12:47;3.60;;;1.80;;
41253;SDS011;26987;59.928;30.306;2023-02-26T11:15:16;4.65;;;2.40;;
41253;SDS011;26987;59.928;30.306;2023-02-26T11:17:46;7.88;;;2.50;;
41253;SDS011;26987;59.928;30.306;2023-02-26T11:20:23;2.88;;;1.50;;
41253;SDS011;26987;59.928;30.306;2023-02-26T11:22:57;7.30;;;2.50;;
41253;SDS011;26987;59.928;30.306;2023-02-26T11:25:27;3.20;;;1.75;;
41253;SDS011;26987;59.928;30.306;2023-02-26T11:27:59;5.20;;;2.17;;
41253;SDS011;26987;59.928;30.306;2023-02-26T11:30:29;3.40;;;1.70;;
41253;SDS011;26987;59.928;30.306;2023-02-26T11:33:03;5.22;;;1.88;;
41253;SDS011;26987;59.928;30.306;2023-02-26T11:35:35;3.30;;;1.70;;
41253;SDS011;26987;59.928;30.306;2023-02-26T11:38:03;6.68;;;1.90;;
41253;SDS011;26987;59.928;30.306;2023-02-26T11:40:33;2.97;;;1.50;;
41253;SDS011;26987;59.928;30.306;2023-02-26T11:43:04;5.03;;;2.03;;
41253;SDS011;26987;59.928;30.306;2023-02-26T11:45:35;5.30;;;1.95;;
41253;SDS011;26987;59.928;30.306;2023-02-26T11:48:10;5.05;;;2.10;;
41253;SDS011;26987;59.928;30.306;2023-02-26T11:50:43;2.92;;;1.48;;
41253;SDS011;26987;59.928;30.306;2023-02-26T11:53:16;2.22;;;1.30;;
41253;SDS011;26987;59.928;30.306;2023-02-26T11:55:46;2.33;;;1.40;;
41253;SDS011;26987;59.928;30.306;2023-02-26T11:58:20;4.25;;;2.10;;
41253;SDS011;26987;59.928;30.306;2023-02-26T12:00:50;4.22;;;1.83;;
41253;SDS011;26987;59.928;30.306;2023-02-26T12:03:20;3.40;;;1.77;;
41253;SDS011;26987;59.928;30.306;2023-02-26T12:05:50;3.10;;;1.42;;
41253;SDS011;26987;59.928;30.306;2023-02-26T12:08:20;4.82;;;1.98;;
41253;SDS011;26987;59.928;30.306;2023-02-26T12:11:04;2.70;;;1.50;;
41253;SDS011;26987;59.928;30.306;2023-02-26T12:13:56;3.25;;;1.50;;
41253;SDS011;26987;59.928;30.306;2023-02-26T12:16:34;5.28;;;1.98;;
41253;SDS011;26987;59.928;30.306;2023-02-26T12:19:12;4.13;;;1.75;;
41253;SDS011;26987;59.928;30.306;2023-02-26T12:21:57;6.55;;;2.08;;
41253;SDS011;26987;59.928;30.306;2023-02-26T12:27:32;4.75;;;2.08;;
41253;SDS011;26987;59.928;30.306;2023-02-26T12:30:26;4.63;;;1.98;;
41253;SDS011;26987;59.928;30.306;2023-02-26T12:33:13;4.45;;;2.10;;
41253;SDS011;26987;59.928;30.306;2023-02-26T12:35:51;3.42;;;1.80;;
41253;SDS011;26987;59.928;30.306;2023-02-26T12:38:33;2.80;;;1.67;;
41253;SDS011;26987;59.928;30.306;2023-02-26T12:41:20;4.65;;;2.53;;
41253;SDS011;26987;59.928;30.306;2023-02-26T12:43:59;7.80;;;2.35;;
41253;SDS011;26987;59.928;30.306;2023-02-26T12:46:38;5.00;;;1.88;;
41253;SDS011;26987;59.928;30.306;2023-02-26T12:49:28;6.82;;;2.78;;
41253;SDS011;26987;59.928;30.306;2023-02-26T12:52:22;5.30;;;2.60;;
41253;SDS011;26987;59.928;30.306;2023-02-26T12:55:12;7.00;;;2.42;;
41253;SDS011;26987;59.928;30.306;2023-02-26T12:57:56;5.13;;;2.23;;
41253;SDS011;26987;59.928;30.306;2023-02-26T13:00:40;4.55;;;2.53;;
41253;SDS011;26987;59.928;30.306;2023-02-26T13:03:27;3.35;;;2.03;;
41253;SDS011;26987;59.928;30.306;2023-02-26T13:09:25;6.43;;;3.42;;
41253;SDS011;26987;59.928;30.306;2023-02-26T13:12:06;6.20;;;3.10;;
41253;SDS011;26987;59.928;30.306;2023-02-26T13:14:46;8.93;;;2.95;;
41253;SDS011;26987;59.928;30.306;2023-02-26T13:17:21;6.43;;;2.38;;
41253;SDS011;26987;59.928;30.306;2023-02-26T13:19:55;6.72;;;2.70;;
41253;SDS011;26987;59.928;30.306;2023-02-26T13:22:27;9.68;;;3.13;;
41253;SDS011;26987;59.928;30.306;2023-02-26T13:24:58;6.30;;;3.55;;
41253;SDS011;26987;59.928;30.306;2023-02-26T13:27:32;7.13;;;3.20;;
41253;SDS011;26987;59.928;30.306;2023-02-26T13:30:05;5.30;;;2.90;;
41253;SDS011;26987;59.928;30.306;2023-02-26T13:32:46;8.65;;;3.38;;
41253;SDS011;26987;59.928;30.306;2023-02-26T13:35:17;6.15;;;2.95;;
41253;SDS011;26987;59.928;30.306;2023-02-26T13:37:48;5.97;;;2.70;;
41253;SDS011;26987;59.928;30.306;2023-02-26T13:40:23;12.77;;;3.00;;
41253;SDS011;26987;59.928;30.306;2023-02-26T13:43:09;10.23;;;4.25;;
41253;SDS011;26987;59.928;30.306;2023-02-26T13:45:47;4.68;;;2.25;;
41253;SDS011;26987;59.928;30.306;2023-02-26T13:48:24;8.10;;;2.90;;
41253;SDS011;26987;59.928;30.306;2023-02-26T13:51:01;9.23;;;2.65;;
41253;SDS011;26987;59.928;30.306;2023-02-26T13:53:45;5.30;;;3.13;;
41253;SDS011;26987;59.928;30.306;2023-02-26T13:56:20;4.97;;;2.30;;
41253;SDS011;26987;59.928;30.306;2023-02-26T13:58:52;5.28;;;2.08;;
41253;SDS011;26987;59.928;30.306;2023-02-26T14:01:25;3.53;;;2.17;;
41253;SDS011;26987;59.928;30.306;2023-02-26T14:04:05;5.30;;;2.33;;
41253;SDS011;26987;59.928;30.306;2023-02-26T14:06:48;6.88;;;2.72;;
41253;SDS011;26987;59.928;30.306;2023-02-26T14:09:35;5.65;;;2.60;;
41253;SDS011;26987;59.928;30.306;2023-02-26T14:12:22;6.57;;;3.25;;
41253;SDS011;26987;59.928;30.306;2023-02-26T14:17:59;7.95;;;2.80;;
41253;SDS011;26987;59.928;30.306;2023-02-26T14:20:29;5.57;;;2.60;;
41253;SDS011;26987;59.928;30.306;2023-02-26T14:23:11;5.20;;;2.58;;
41253;SDS011;26987;59.928;30.306;2023-02-26T14:25:46;3.97;;;2.15;;
41253;SDS011;26987;59.928;30.306;2023-02-26T14:31:12;7.40;;;2.50;;
41253;SDS011;26987;59.928;30.306;2023-02-26T14:33:44;8.57;;;3.10;;
41253;SDS011;26987;59.928;30.306;2023-02-26T14:36:16;6.90;;;2.63;;
41253;SDS011;26987;59.928;30.306;2023-02-26T14:38:47;4.47;;;2.38;;
41253;SDS011;26987;59.928;30.306;2023-02-26T14:41:21;9.02;;;2.75;;
41253;SDS011;26987;59.928;30.306;2023-02-26T14:43:56;5.80;;;2.88;;
41253;SDS011;26987;59.928;30.306;2023-02-26T14:46:28;6.13;;;2.95;;
41253;SDS011;26987;59.928;30.306;2023-02-26T14:48:57;8.30;;;2.88;;
41253;SDS011;26987;59.928;30.306;2023-02-26T14:51:29;7.25;;;2.53;;
41253;SDS011;26987;59.928;30.306;2023-02-26T14:54:09;7.07;;;3.10;;
41253;SDS011;26987;59.928;30.306;2023-02-26T14:56:51;4.30;;;2.10;;
41253;SDS011;26987;59.928;30.306;2023-02-26T15:02:28;4.57;;;2.05;;
41253;SDS011;26987;59.928;30.306;2023-02-26T15:07:57;4.38;;;1.88;;
41253;SDS011;26987;59.928;30.306;2023-02-26T15:10:40;7.10;;;2.55;;
41253;SDS011;26987;59.928;30.306;2023-02-26T15:13:26;5.03;;;2.10;;
41253;SDS011;26987;59.928;30.306;2023-02-26T15:16:17;7.75;;;2.40;;
41253;SDS011;26987;59.928;30.306;2023-02-26T15:19:03;4.80;;;2.72;;
41253;SDS011;26987;59.928;30.306;2023-02-26T15:21:47;5.10;;;2.47;;
41253;SDS011;26987;59.928;30.306;2023-02-26T15:24:27;10.95;;;3.00;;
41253;SDS011;26987;59.928;30.306;2023-02-26T15:26:57;7.05;;;2.42;;
41253;SDS011;26987;59.928;30.306;2023-02-26T15:29:28;6.93;;;3.20;;
41253;SDS011;26987;59.928;30.306;2023-02-26T15:31:59;5.25;;;2.33;;
41253;SDS011;26987;59.928;30.306;2023-02-26T15:34:33;9.20;;;2.17;;
41253;SDS011;26987;59.928;30.306;2023-02-26T15:37:01;7.30;;;1.92;;